sensor_id;sensor_type;location;lat;lon;timestamp;temperature;humidity
7046;DHT22;3564;53.326;10.356;2023-02-28T00:00:28;5.10;93.90
7046;DHT22;3564;53.326;10.356;2023-02-28T00:02:54;5.10;93.80
7046;DHT22;3564;53.326;10.356;2023-02-28T00:05:23;5.00;93.80
7046;DHT22;3564;53.326;10.356;2023-02-28T00:07:49;5.00;93.90
7046;DHT22;3564;53.326;10.356;2023-02-28T00:10:19;5.00;93.90
7046;DHT22;3564;53.326;10.356;2023-02-28T00:13:06;5.00;93.90
7046;DHT22;3564;53.326;10.356;2023-02-28T00:15:32;5.00;94.00
7046;DHT22;3564;53.326;10.356;2023-02-28T00:17:58;5.00;93.90
7046;DHT22;3564;53.326;10.356;2023-02-28T00:20:24;4.90;93.90
7046;DHT22;3564;53.326;10.356;2023-02-28T00:22:52;4.90;94.00
7046;DHT22;3564;53.326;10.356;2023-02-28T00:25:21;4.90;94.00
7046;DHT22;3564;53.326;10.356;2023-02-28T00:27:47;4.90;94.00
7046;DHT22;3564;53.326;10.356;2023-02-28T00:30:16;4.80;93.90
7046;DHT22;3564;53.326;10.356;2023-02-28T00:32:42;4.80;94.00
7046;DHT22;3564;53.326;10.356;2023-02-28T00:35:09;4.80;94.00
7046;DHT22;3564;53.326;10.356;2023-02-28T00:37:34;4.70;94.00
7046;DHT22;3564;53.326;10.356;2023-02-28T00:40:00;4.70;94.10
7046;DHT22;3564;53.326;10.356;2023-02-28T00:42:26;4.70;94.30
7046;DHT22;3564;53.326;10.356;2023-02-28T00:44:53;4.70;94.30
7046;DHT22;3564;53.326;10.356;2023-02-28T00:47:19;4.60;94.20
7046;DHT22;3564;53.326;10.356;2023-02-28T00:49:46;4.60;94.00
7046;DHT22;3564;53.326;10.356;2023-02-28T00:52:12;4.60;94.20
7046;DHT22;3564;53.326;10.356;2023-02-28T00:54:38;4.60;94.30
7046;DHT22;3564;53.326;10.356;2023-02-28T00:57:03;4.60;94.40
7046;DHT22;3564;53.326;10.356;2023-02-28T00:59:29;4.60;94.40
7046;DHT22;3564;53.326;10.356;2023-02-28T01:01:54;4.50;94.30
7046;DHT22;3564;53.326;10.356;2023-02-28T01:04:20;4.50;94.20
7046;DHT22;3564;53.326;10.356;2023-02-28T01:06:46;4.50;94.20
7046;DHT22;3564;53.326;10.356;2023-02-28T01:09:12;4.50;94.10
7046;DHT22;3564;53.326;10.356;2023-02-28T01:11:38;4.50;94.10
7046;DHT22;3564;53.326;10.356;2023-02-28T01:14:04;4.50;94.10
7046;DHT22;3564;53.326;10.356;2023-02-28T01:16:30;4.40;94.10
7046;DHT22;3564;53.326;10.356;2023-02-28T01:18:56;4.40;94.10
7046;DHT22;3564;53.326;10.356;2023-02-28T01:21:22;4.50;94.30
7046;DHT22;3564;53.326;10.356;2023-02-28T01:23:48;4.40;94.30
7046;DHT22;3564;53.326;10.356;2023-02-28T01:26:20;4.40;94.10
7046;DHT22;3564;53.326;10.356;2023-02-28T01:28:46;4.40;94.10
7046;DHT22;3564;53.326;10.356;2023-02-28T01:31:12;4.30;94.10
7046;DHT22;3564;53.326;10.356;2023-02-28T01:33:38;4.30;94.20
7046;DHT22;3564;53.326;10.356;2023-02-28T01:36:27;4.30;94.30
7046;DHT22;3564;53.326;10.356;2023-02-28T01:38:53;4.20;94.20
7046;DHT22;3564;53.326;10.356;2023-02-28T01:41:22;4.20;94.20
7046;DHT22;3564;53.326;10.356;2023-02-28T01:46:14;4.20;94.30
7046;DHT22;3564;53.326;10.356;2023-02-28T01:48:47;4.20;94.10
7046;DHT22;3564;53.326;10.356;2023-02-28T01:51:18;4.10;94.10
7046;DHT22;3564;53.326;10.356;2023-02-28T01:53:49;4.10;94.10
7046;DHT22;3564;53.326;10.356;2023-02-28T01:56:20;4.10;94.30
7046;DHT22;3564;53.326;10.356;2023-02-28T01:58:49;4.00;94.20
7046;DHT22;3564;53.326;10.356;2023-02-28T02:01:16;4.00;94.00
7046;DHT22;3564;53.326;10.356;2023-02-28T02:04:07;3.90;94.20
7046;DHT22;3564;53.326;10.356;2023-02-28T02:06:40;3.90;94.20
7046;DHT22;3564;53.326;10.356;2023-02-28T02:09:07;3.90;94.20
7046;DHT22;3564;53.326;10.356;2023-02-28T02:11:34;3.90;94.30
7046;DHT22;3564;53.326;10.356;2023-02-28T02:25:28;3.80;94.40
7046;DHT22;3564;53.326;10.356;2023-02-28T02:30:45;3.80;94.20
7046;DHT22;3564;53.326;10.356;2023-02-28T02:46:36;3.70;94.20
7046;DHT22;3564;53.326;10.356;2023-02-28T02:49:06;3.60;94.10
7046;DHT22;3564;53.326;10.356;2023-02-28T02:51:34;3.60;94.30
7046;DHT22;3564;53.326;10.356;2023-02-28T02:54:05;3.60;94.10
7046;DHT22;3564;53.326;10.356;2023-02-28T02:56:33;3.60;94.20
7046;DHT22;3564;53.326;10.356;2023-02-28T02:59:04;3.60;94.20
7046;DHT22;3564;53.326;10.356;2023-02-28T03:01:32;3.50;94.10
7046;DHT22;3564;53.326;10.356;2023-02-28T03:04:06;3.50;94.30
7046;DHT22;3564;53.326;10.356;2023-02-28T03:06:33;3.40;94.20
7046;DHT22;3564;53.326;10.356;2023-02-28T03:09:01;3.40;94.20
7046;DHT22;3564;53.326;10.356;2023-02-28T03:11:27;3.40;94.20
7046;DHT22;3564;53.326;10.356;2023-02-28T03:22:27;3.40;94.20
7046;DHT22;3564;53.326;10.356;2023-02-28T03:25:18;3.30;94.10
7046;DHT22;3564;53.326;10.356;2023-02-28T03:33:17;3.20;94.10
7046;DHT22;3564;53.326;10.356;2023-02-28T03:35:49;3.20;94.10
7046;DHT22;3564;53.326;10.356;2023-02-28T03:38:33;3.20;94.00
7046;DHT22;3564;53.326;10.356;2023-02-28T03:43:37;3.10;93.90
7046;DHT22;3564;53.326;10.356;2023-02-28T03:46:10;3.10;93.80
7046;DHT22;3564;53.326;10.356;2023-02-28T03:48:45;3.10;93.80
7046;DHT22;3564;53.326;10.356;2023-02-28T03:51:17;3.00;93.90
7046;DHT22;3564;53.326;10.356;2023-02-28T03:53:50;3.00;94.00
7046;DHT22;3564;53.326;10.356;2023-02-28T03:56:29;3.00;93.90
7046;DHT22;3564;53.326;10.356;2023-02-28T03:59:06;3.00;93.80
7046;DHT22;3564;53.326;10.356;2023-02-28T04:01:44;3.00;93.80
7046;DHT22;3564;53.326;10.356;2023-02-28T04:04:11;3.00;93.80
7046;DHT22;3564;53.326;10.356;2023-02-28T04:06:38;3.00;93.80
7046;DHT22;3564;53.326;10.356;2023-02-28T04:09:05;3.00;93.90
7046;DHT22;3564;53.326;10.356;2023-02-28T04:11:42;2.90;93.80
7046;DHT22;3564;53.326;10.356;2023-02-28T04:14:11;2.90;93.80
7046;DHT22;3564;53.326;10.356;2023-02-28T04:16:40;2.90;93.90
7046;DHT22;3564;53.326;10.356;2023-02-28T04:19:07;2.90;94.00
7046;DHT22;3564;53.326;10.356;2023-02-28T04:21:38;2.90;93.90
7046;DHT22;3564;53.326;10.356;2023-02-28T04:24:09;2.90;94.00
7046;DHT22;3564;53.326;10.356;2023-02-28T04:26:39;2.90;94.00
7046;DHT22;3564;53.326;10.356;2023-02-28T04:29:06;2.90;95.30
7046;DHT22;3564;53.326;10.356;2023-02-28T04:31:33;2.90;93.70
7046;DHT22;3564;53.326;10.356;2023-02-28T04:33:59;2.80;93.70
7046;DHT22;3564;53.326;10.356;2023-02-28T04:36:25;2.80;93.70
7046;DHT22;3564;53.326;10.356;2023-02-28T04:38:51;2.80;93.80
7046;DHT22;3564;53.326;10.356;2023-02-28T04:41:17;2.80;93.80
7046;DHT22;3564;53.326;10.356;2023-02-28T04:43:43;2.80;93.70
7046;DHT22;3564;53.326;10.356;2023-02-28T04:46:09;2.80;93.80
7046;DHT22;3564;53.326;10.356;2023-02-28T04:48:38;2.70;93.80
7046;DHT22;3564;53.326;10.356;2023-02-28T04:51:10;2.80;93.80
7046;DHT22;3564;53.326;10.356;2023-02-28T04:53:37;2.70;93.60
7046;DHT22;3564;53.326;10.356;2023-02-28T04:56:05;2.70;93.70
7046;DHT22;3564;53.326;10.356;2023-02-28T04:58:31;2.70;93.70
7046;DHT22;3564;53.326;10.356;2023-02-28T05:01:45;2.70;93.60
7046;DHT22;3564;53.326;10.356;2023-02-28T05:04:02;2.60;93.60
7046;DHT22;3564;53.326;10.356;2023-02-28T05:06:30;2.60;93.60
7046;DHT22;3564;53.326;10.356;2023-02-28T05:08:57;2.50;93.60
7046;DHT22;3564;53.326;10.356;2023-02-28T05:11:26;2.50;93.60
7046;DHT22;3564;53.326;10.356;2023-02-28T05:13:54;2.50;93.60
7046;DHT22;3564;53.326;10.356;2023-02-28T05:16:20;2.50;93.60
7046;DHT22;3564;53.326;10.356;2023-02-28T05:18:46;2.50;93.40
7046;DHT22;3564;53.326;10.356;2023-02-28T05:21:28;2.50;93.30
7046;DHT22;3564;53.326;10.356;2023-02-28T05:23:55;2.40;93.20
7046;DHT22;3564;53.326;10.356;2023-02-28T05:26:22;2.40;93.30
7046;DHT22;3564;53.326;10.356;2023-02-28T05:28:48;2.40;93.50
7046;DHT22;3564;53.326;10.356;2023-02-28T05:31:13;2.40;93.60
7046;DHT22;3564;53.326;10.356;2023-02-28T05:33:39;2.40;93.70
7046;DHT22;3564;53.326;10.356;2023-02-28T05:36:05;2.40;93.50
7046;DHT22;3564;53.326;10.356;2023-02-28T05:38:31;2.30;93.40
7046;DHT22;3564;53.326;10.356;2023-02-28T05:40:57;2.30;93.40
7046;DHT22;3564;53.326;10.356;2023-02-28T05:43:23;2.30;93.20
7046;DHT22;3564;53.326;10.356;2023-02-28T05:45:48;2.30;93.20
7046;DHT22;3564;53.326;10.356;2023-02-28T05:48:14;2.20;93.00
7046;DHT22;3564;53.326;10.356;2023-02-28T05:50:39;2.20;93.20
7046;DHT22;3564;53.326;10.356;2023-02-28T05:53:06;2.20;93.20
7046;DHT22;3564;53.326;10.356;2023-02-28T05:55:33;2.20;93.20
7046;DHT22;3564;53.326;10.356;2023-02-28T05:57:58;2.10;93.10
7046;DHT22;3564;53.326;10.356;2023-02-28T06:00:24;2.10;93.20
7046;DHT22;3564;53.326;10.356;2023-02-28T06:02:49;2.10;93.20
7046;DHT22;3564;53.326;10.356;2023-02-28T06:05:18;2.10;93.20
7046;DHT22;3564;53.326;10.356;2023-02-28T06:07:44;2.00;93.10
7046;DHT22;3564;53.326;10.356;2023-02-28T06:10:11;2.00;93.00
7046;DHT22;3564;53.326;10.356;2023-02-28T06:12:37;2.00;93.00
7046;DHT22;3564;53.326;10.356;2023-02-28T06:15:06;2.00;93.10
7046;DHT22;3564;53.326;10.356;2023-02-28T06:17:32;2.00;93.10
7046;DHT22;3564;53.326;10.356;2023-02-28T06:19:57;2.00;93.10
7046;DHT22;3564;53.326;10.356;2023-02-28T06:22:23;2.00;93.00
7046;DHT22;3564;53.326;10.356;2023-02-28T06:24:48;2.00;93.10
7046;DHT22;3564;53.326;10.356;2023-02-28T06:27:14;2.00;93.10
7046;DHT22;3564;53.326;10.356;2023-02-28T06:29:39;2.00;93.10
7046;DHT22;3564;53.326;10.356;2023-02-28T06:32:06;2.00;93.20
7046;DHT22;3564;53.326;10.356;2023-02-28T06:34:32;2.00;93.30
7046;DHT22;3564;53.326;10.356;2023-02-28T06:37:01;2.00;93.30
7046;DHT22;3564;53.326;10.356;2023-02-28T06:39:31;1.90;93.40
7046;DHT22;3564;53.326;10.356;2023-02-28T06:41:57;2.00;93.40
7046;DHT22;3564;53.326;10.356;2023-02-28T06:44:23;1.90;93.30
7046;DHT22;3564;53.326;10.356;2023-02-28T06:46:49;1.90;93.30
7046;DHT22;3564;53.326;10.356;2023-02-28T06:49:15;1.90;93.50
7046;DHT22;3564;53.326;10.356;2023-02-28T06:51:42;2.00;93.50
7046;DHT22;3564;53.326;10.356;2023-02-28T06:54:12;1.90;93.40
7046;DHT22;3564;53.326;10.356;2023-02-28T06:56:38;1.90;93.50
7046;DHT22;3564;53.326;10.356;2023-02-28T06:59:04;1.90;93.70
7046;DHT22;3564;53.326;10.356;2023-02-28T07:01:30;2.00;93.80
7046;DHT22;3564;53.326;10.356;2023-02-28T07:03:57;2.00;93.80
7046;DHT22;3564;53.326;10.356;2023-02-28T07:06:23;2.00;93.70
7046;DHT22;3564;53.326;10.356;2023-02-28T07:08:50;2.00;93.70
7046;DHT22;3564;53.326;10.356;2023-02-28T07:11:16;2.00;93.90
7046;DHT22;3564;53.326;10.356;2023-02-28T07:13:41;2.00;94.00
7046;DHT22;3564;53.326;10.356;2023-02-28T07:16:11;2.00;94.40
7046;DHT22;3564;53.326;10.356;2023-02-28T07:18:37;2.00;94.30
7046;DHT22;3564;53.326;10.356;2023-02-28T07:21:08;2.00;94.40
7046;DHT22;3564;53.326;10.356;2023-02-28T07:23:38;2.10;94.60
7046;DHT22;3564;53.326;10.356;2023-02-28T07:26:05;2.10;94.70
7046;DHT22;3564;53.326;10.356;2023-02-28T07:28:31;2.20;94.70
7046;DHT22;3564;53.326;10.356;2023-02-28T07:30:56;2.20;94.70
7046;DHT22;3564;53.326;10.356;2023-02-28T07:33:22;2.30;94.70
7046;DHT22;3564;53.326;10.356;2023-02-28T07:35:49;2.30;94.60
7046;DHT22;3564;53.326;10.356;2023-02-28T07:38:15;2.30;94.80
7046;DHT22;3564;53.326;10.356;2023-02-28T07:40:40;2.30;94.80
7046;DHT22;3564;53.326;10.356;2023-02-28T07:43:06;2.30;94.90
7046;DHT22;3564;53.326;10.356;2023-02-28T07:45:32;2.30;95.00
7046;DHT22;3564;53.326;10.356;2023-02-28T07:48:00;2.40;95.20
7046;DHT22;3564;53.326;10.356;2023-02-28T07:50:26;2.40;95.40
7046;DHT22;3564;53.326;10.356;2023-02-28T07:52:57;2.50;95.50
7046;DHT22;3564;53.326;10.356;2023-02-28T07:55:22;2.50;95.60
7046;DHT22;3564;53.326;10.356;2023-02-28T07:57:48;2.60;95.80
7046;DHT22;3564;53.326;10.356;2023-02-28T08:00:13;2.60;95.80
7046;DHT22;3564;53.326;10.356;2023-02-28T08:02:39;2.70;95.80
7046;DHT22;3564;53.326;10.356;2023-02-28T08:05:07;2.70;95.80
7046;DHT22;3564;53.326;10.356;2023-02-28T08:07:32;2.70;95.90
7046;DHT22;3564;53.326;10.356;2023-02-28T08:10:00;2.80;96.00
7046;DHT22;3564;53.326;10.356;2023-02-28T08:12:26;2.80;96.10
7046;DHT22;3564;53.326;10.356;2023-02-28T08:14:52;2.90;96.20
7046;DHT22;3564;53.326;10.356;2023-02-28T08:17:17;2.90;96.20
7046;DHT22;3564;53.326;10.356;2023-02-28T08:19:46;3.00;96.30
7046;DHT22;3564;53.326;10.356;2023-02-28T08:22:12;3.00;96.40
7046;DHT22;3564;53.326;10.356;2023-02-28T08:24:40;3.10;96.60
7046;DHT22;3564;53.326;10.356;2023-02-28T08:27:09;3.10;96.70
7046;DHT22;3564;53.326;10.356;2023-02-28T08:29:37;3.20;96.80
7046;DHT22;3564;53.326;10.356;2023-02-28T08:32:04;3.30;96.90
7046;DHT22;3564;53.326;10.356;2023-02-28T08:34:31;3.30;96.90
7046;DHT22;3564;53.326;10.356;2023-02-28T08:36:57;3.40;96.90
7046;DHT22;3564;53.326;10.356;2023-02-28T08:39:22;3.50;97.00
7046;DHT22;3564;53.326;10.356;2023-02-28T08:41:48;3.50;97.00
7046;DHT22;3564;53.326;10.356;2023-02-28T08:44:13;3.60;97.10
7046;DHT22;3564;53.326;10.356;2023-02-28T08:46:39;3.60;97.10
7046;DHT22;3564;53.326;10.356;2023-02-28T08:49:04;3.70;97.10
7046;DHT22;3564;53.326;10.356;2023-02-28T08:51:30;3.70;97.10
7046;DHT22;3564;53.326;10.356;2023-02-28T08:53:59;3.80;97.10
7046;DHT22;3564;53.326;10.356;2023-02-28T08:56:26;3.80;97.10
7046;DHT22;3564;53.326;10.356;2023-02-28T08:58:54;3.90;97.20
7046;DHT22;3564;53.326;10.356;2023-02-28T09:01:39;4.00;97.20
7046;DHT22;3564;53.326;10.356;2023-02-28T09:04:06;4.00;97.30
7046;DHT22;3564;53.326;10.356;2023-02-28T09:06:34;4.10;97.30
7046;DHT22;3564;53.326;10.356;2023-02-28T09:09:00;4.10;97.30
7046;DHT22;3564;53.326;10.356;2023-02-28T09:11:28;4.20;97.30
7046;DHT22;3564;53.326;10.356;2023-02-28T09:13:53;4.30;97.20
7046;DHT22;3564;53.326;10.356;2023-02-28T09:16:21;4.30;97.20
7046;DHT22;3564;53.326;10.356;2023-02-28T09:18:47;4.40;97.10
7046;DHT22;3564;53.326;10.356;2023-02-28T09:21:15;4.50;97.10
7046;DHT22;3564;53.326;10.356;2023-02-28T09:23:42;4.60;97.10
7046;DHT22;3564;53.326;10.356;2023-02-28T09:26:13;4.60;97.00
7046;DHT22;3564;53.326;10.356;2023-02-28T09:28:39;4.70;97.00
7046;DHT22;3564;53.326;10.356;2023-02-28T09:31:05;4.80;97.00
7046;DHT22;3564;53.326;10.356;2023-02-28T09:33:30;4.90;97.10
7046;DHT22;3564;53.326;10.356;2023-02-28T09:36:02;5.00;97.10
7046;DHT22;3564;53.326;10.356;2023-02-28T09:38:29;5.00;97.00
7046;DHT22;3564;53.326;10.356;2023-02-28T09:41:01;5.10;97.10
7046;DHT22;3564;53.326;10.356;2023-02-28T09:43:33;5.20;97.10
7046;DHT22;3564;53.326;10.356;2023-02-28T09:48:50;5.40;97.10
7046;DHT22;3564;53.326;10.356;2023-02-28T09:51:33;5.50;96.90
7046;DHT22;3564;53.326;10.356;2023-02-28T09:54:01;5.60;96.90
7046;DHT22;3564;53.326;10.356;2023-02-28T09:56:39;5.70;96.80
7046;DHT22;3564;53.326;10.356;2023-02-28T10:02:08;5.90;96.50
7046;DHT22;3564;53.326;10.356;2023-02-28T10:04:50;6.00;96.40
7046;DHT22;3564;53.326;10.356;2023-02-28T10:10:15;6.20;96.10
7046;DHT22;3564;53.326;10.356;2023-02-28T10:12:44;6.30;95.80
7046;DHT22;3564;53.326;10.356;2023-02-28T10:15:14;6.40;95.60
7046;DHT22;3564;53.326;10.356;2023-02-28T10:17:43;6.50;95.50
7046;DHT22;3564;53.326;10.356;2023-02-28T10:20:14;6.60;95.10
7046;DHT22;3564;53.326;10.356;2023-02-28T10:23:03;6.70;94.80
7046;DHT22;3564;53.326;10.356;2023-02-28T10:25:35;6.80;93.90
7046;DHT22;3564;53.326;10.356;2023-02-28T10:28:12;6.90;93.40
7046;DHT22;3564;53.326;10.356;2023-02-28T10:30:42;7.00;93.30
7046;DHT22;3564;53.326;10.356;2023-02-28T10:33:24;7.10;93.20
7046;DHT22;3564;53.326;10.356;2023-02-28T10:35:51;7.20;93.10
7046;DHT22;3564;53.326;10.356;2023-02-28T10:38:44;7.30;92.80
7046;DHT22;3564;53.326;10.356;2023-02-28T10:41:33;7.40;91.50
7046;DHT22;3564;53.326;10.356;2023-02-28T10:44:20;7.50;90.90
7046;DHT22;3564;53.326;10.356;2023-02-28T10:46:46;7.60;90.60
7046;DHT22;3564;53.326;10.356;2023-02-28T10:49:24;7.70;90.20
7046;DHT22;3564;53.326;10.356;2023-02-28T10:52:00;7.80;89.60
7046;DHT22;3564;53.326;10.356;2023-02-28T10:54:36;7.90;87.80
7046;DHT22;3564;53.326;10.356;2023-02-28T10:57:22;8.00;87.80
7046;DHT22;3564;53.326;10.356;2023-02-28T10:59:53;8.10;87.20
7046;DHT22;3564;53.326;10.356;2023-02-28T11:02:35;8.30;87.00
7046;DHT22;3564;53.326;10.356;2023-02-28T11:05:21;8.40;86.40
7046;DHT22;3564;53.326;10.356;2023-02-28T11:10:31;8.60;86.70
7046;DHT22;3564;53.326;10.356;2023-02-28T11:13:00;8.80;87.10
7046;DHT22;3564;53.326;10.356;2023-02-28T11:15:32;8.90;86.90
7046;DHT22;3564;53.326;10.356;2023-02-28T11:18:15;9.00;86.10
7046;DHT22;3564;53.326;10.356;2023-02-28T11:20:52;9.10;85.90
7046;DHT22;3564;53.326;10.356;2023-02-28T11:23:19;9.20;85.70
7046;DHT22;3564;53.326;10.356;2023-02-28T11:25:49;9.30;86.30
7046;DHT22;3564;53.326;10.356;2023-02-28T11:28:32;9.30;86.70
7046;DHT22;3564;53.326;10.356;2023-02-28T11:36:08;9.70;86.10
7046;DHT22;3564;53.326;10.356;2023-02-28T11:38:36;9.80;85.00
7046;DHT22;3564;53.326;10.356;2023-02-28T11:44:00;9.90;84.60
7046;DHT22;3564;53.326;10.356;2023-02-28T11:46:44;9.90;84.20
7046;DHT22;3564;53.326;10.356;2023-02-28T11:49:27;9.90;83.50
7046;DHT22;3564;53.326;10.356;2023-02-28T11:55:41;10.00;91.90
7046;DHT22;3564;53.326;10.356;2023-02-28T11:58:34;9.90;93.40
7046;DHT22;3564;53.326;10.356;2023-02-28T12:01:24;10.00;91.70
7046;DHT22;3564;53.326;10.356;2023-02-28T12:04:14;10.00;91.30
7046;DHT22;3564;53.326;10.356;2023-02-28T12:06:58;10.00;91.30
7046;DHT22;3564;53.326;10.356;2023-02-28T12:15:11;10.20;91.10
7046;DHT22;3564;53.326;10.356;2023-02-28T12:29:23;10.40;90.00
7046;DHT22;3564;53.326;10.356;2023-02-28T12:34:37;10.50;90.60
7046;DHT22;3564;53.326;10.356;2023-02-28T12:38:10;10.60;90.90
7046;DHT22;3564;53.326;10.356;2023-02-28T12:40:11;10.60;90.50
7046;DHT22;3564;53.326;10.356;2023-02-28T12:42:40;10.60;90.30
7046;DHT22;3564;53.326;10.356;2023-02-28T12:45:15;10.70;89.80
7046;DHT22;3564;53.326;10.356;2023-02-28T12:47:44;10.70;90.00
7046;DHT22;3564;53.326;10.356;2023-02-28T12:50:12;10.70;90.10
7046;DHT22;3564;53.326;10.356;2023-02-28T12:53:06;10.70;89.10
7046;DHT22;3564;53.326;10.356;2023-02-28T12:55:49;10.70;89.90
7046;DHT22;3564;53.326;10.356;2023-02-28T12:58:25;10.70;90.00
7046;DHT22;3564;53.326;10.356;2023-02-28T13:06:44;10.70;89.70
7046;DHT22;3564;53.326;10.356;2023-02-28T13:11:51;10.80;73.40
7046;DHT22;3564;53.326;10.356;2023-02-28T13:14:28;10.80;73.00
7046;DHT22;3564;53.326;10.356;2023-02-28T13:19:37;10.90;72.90
7046;DHT22;3564;53.326;10.356;2023-02-28T13:22:03;10.90;73.20
7046;DHT22;3564;53.326;10.356;2023-02-28T13:24:50;10.90;73.00
7046;DHT22;3564;53.326;10.356;2023-02-28T13:27:36;10.90;72.30
7046;DHT22;3564;53.326;10.356;2023-02-28T13:35:46;11.10;70.50
7046;DHT22;3564;53.326;10.356;2023-02-28T13:38:17;11.10;70.30
7046;DHT22;3564;53.326;10.356;2023-02-28T13:40:42;11.10;70.30
7046;DHT22;3564;53.326;10.356;2023-02-28T13:43:08;11.20;70.50
7046;DHT22;3564;53.326;10.356;2023-02-28T13:45:34;11.30;70.60
7046;DHT22;3564;53.326;10.356;2023-02-28T13:48:19;11.30;71.00
7046;DHT22;3564;53.326;10.356;2023-02-28T13:50:50;11.40;69.60
7046;DHT22;3564;53.326;10.356;2023-02-28T13:56:16;11.60;71.10
7046;DHT22;3564;53.326;10.356;2023-02-28T13:58:57;11.60;71.30
7046;DHT22;3564;53.326;10.356;2023-02-28T14:06:56;11.90;70.50
7046;DHT22;3564;53.326;10.356;2023-02-28T14:09:29;12.00;71.40
7046;DHT22;3564;53.326;10.356;2023-02-28T14:11:56;12.10;71.00
7046;DHT22;3564;53.326;10.356;2023-02-28T14:17:01;12.30;69.30
7046;DHT22;3564;53.326;10.356;2023-02-28T14:19:30;12.40;68.90
7046;DHT22;3564;53.326;10.356;2023-02-28T14:27:43;12.80;70.40
7046;DHT22;3564;53.326;10.356;2023-02-28T14:32:43;13.80;67.40
7046;DHT22;3564;53.326;10.356;2023-02-28T14:38:24;15.50;63.90
7046;DHT22;3564;53.326;10.356;2023-02-28T14:40:52;16.30;63.30
7046;DHT22;3564;53.326;10.356;2023-02-28T14:43:25;17.00;62.20
7046;DHT22;3564;53.326;10.356;2023-02-28T14:45:55;17.80;61.40
7046;DHT22;3564;53.326;10.356;2023-02-28T14:48:22;18.20;59.40
7046;DHT22;3564;53.326;10.356;2023-02-28T14:50:51;18.10;58.60
7046;DHT22;3564;53.326;10.356;2023-02-28T14:53:20;17.90;58.10
7046;DHT22;3564;53.326;10.356;2023-02-28T14:55:47;17.70;57.30
7046;DHT22;3564;53.326;10.356;2023-02-28T14:58:29;17.90;56.00
7046;DHT22;3564;53.326;10.356;2023-02-28T15:00:58;18.10;55.10
7046;DHT22;3564;53.326;10.356;2023-02-28T15:03:32;18.40;56.30
7046;DHT22;3564;53.326;10.356;2023-02-28T15:06:03;18.90;55.00
7046;DHT22;3564;53.326;10.356;2023-02-28T15:08:30;19.30;54.20
7046;DHT22;3564;53.326;10.356;2023-02-28T15:11:06;19.60;54.30
7046;DHT22;3564;53.326;10.356;2023-02-28T15:13:43;19.90;54.20
7046;DHT22;3564;53.326;10.356;2023-02-28T15:16:22;20.10;54.10
7046;DHT22;3564;53.326;10.356;2023-02-28T15:18:56;20.40;53.50
7046;DHT22;3564;53.326;10.356;2023-02-28T15:21:33;20.40;53.00
7046;DHT22;3564;53.326;10.356;2023-02-28T15:24:10;20.50;53.10
7046;DHT22;3564;53.326;10.356;2023-02-28T15:26:46;20.70;52.70
7046;DHT22;3564;53.326;10.356;2023-02-28T15:29:22;20.80;52.60
7046;DHT22;3564;53.326;10.356;2023-02-28T15:32:05;20.90;52.70
7046;DHT22;3564;53.326;10.356;2023-02-28T15:34:40;21.00;52.00
7046;DHT22;3564;53.326;10.356;2023-02-28T15:40:26;21.10;50.80
7046;DHT22;3564;53.326;10.356;2023-02-28T15:45:29;21.00;50.70
7046;DHT22;3564;53.326;10.356;2023-02-28T15:47:57;20.90;51.20
7046;DHT22;3564;53.326;10.356;2023-02-28T15:50:23;20.70;51.20
7046;DHT22;3564;53.326;10.356;2023-02-28T15:52:49;20.40;51.20
7046;DHT22;3564;53.326;10.356;2023-02-28T15:55:26;20.10;51.40
7046;DHT22;3564;53.326;10.356;2023-02-28T15:57:54;19.70;51.60
7046;DHT22;3564;53.326;10.356;2023-02-28T16:00:23;19.20;52.00
7046;DHT22;3564;53.326;10.356;2023-02-28T16:02:50;18.80;52.30
7046;DHT22;3564;53.326;10.356;2023-02-28T16:05:24;18.20;52.30
7046;DHT22;3564;53.326;10.356;2023-02-28T16:07:57;17.60;52.80
7046;DHT22;3564;53.326;10.356;2023-02-28T16:10:24;17.00;53.60
7046;DHT22;3564;53.326;10.356;2023-02-28T16:12:53;16.50;54.40
7046;DHT22;3564;53.326;10.356;2023-02-28T16:15:28;15.90;55.60
7046;DHT22;3564;53.326;10.356;2023-02-28T16:17:55;15.40;56.20
7046;DHT22;3564;53.326;10.356;2023-02-28T16:20:29;14.90;56.30
7046;DHT22;3564;53.326;10.356;2023-02-28T16:22:55;14.50;56.90
7046;DHT22;3564;53.326;10.356;2023-02-28T16:25:42;14.00;57.40
7046;DHT22;3564;53.326;10.356;2023-02-28T16:28:20;13.60;56.80
7046;DHT22;3564;53.326;10.356;2023-02-28T16:30:47;13.30;57.30
7046;DHT22;3564;53.326;10.356;2023-02-28T16:33:13;13.00;59.90
7046;DHT22;3564;53.326;10.356;2023-02-28T16:35:42;12.80;60.00
7046;DHT22;3564;53.326;10.356;2023-02-28T16:38:07;12.60;61.00
7046;DHT22;3564;53.326;10.356;2023-02-28T16:40:35;12.30;62.50
7046;DHT22;3564;53.326;10.356;2023-02-28T16:43:05;12.10;62.60
7046;DHT22;3564;53.326;10.356;2023-02-28T16:45:32;11.90;61.70
7046;DHT22;3564;53.326;10.356;2023-02-28T16:47:58;11.80;61.80
7046;DHT22;3564;53.326;10.356;2023-02-28T16:50:28;11.60;63.10
7046;DHT22;3564;53.326;10.356;2023-02-28T16:52:55;11.40;62.20
7046;DHT22;3564;53.326;10.356;2023-02-28T16:55:22;11.20;61.60
7046;DHT22;3564;53.326;10.356;2023-02-28T16:58:11;11.10;62.70
7046;DHT22;3564;53.326;10.356;2023-02-28T17:00:38;10.90;63.00
7046;DHT22;3564;53.326;10.356;2023-02-28T17:03:05;10.80;63.30
7046;DHT22;3564;53.326;10.356;2023-02-28T17:05:36;10.70;64.40
7046;DHT22;3564;53.326;10.356;2023-02-28T17:08:03;10.50;64.80
7046;DHT22;3564;53.326;10.356;2023-02-28T17:10:29;10.40;65.30
7046;DHT22;3564;53.326;10.356;2023-02-28T17:12:54;10.30;66.70
7046;DHT22;3564;53.326;10.356;2023-02-28T17:15:20;10.10;66.10
7046;DHT22;3564;53.326;10.356;2023-02-28T17:17:47;10.00;67.60
7046;DHT22;3564;53.326;10.356;2023-02-28T17:20:20;9.90;69.20
7046;DHT22;3564;53.326;10.356;2023-02-28T17:22:50;9.80;69.80
7046;DHT22;3564;53.326;10.356;2023-02-28T17:25:16;9.60;68.10
7046;DHT22;3564;53.326;10.356;2023-02-28T17:27:43;9.50;68.40
7046;DHT22;3564;53.326;10.356;2023-02-28T17:30:18;9.40;69.20
7046;DHT22;3564;53.326;10.356;2023-02-28T17:32:44;9.30;69.50
7046;DHT22;3564;53.326;10.356;2023-02-28T17:35:10;9.20;69.60
7046;DHT22;3564;53.326;10.356;2023-02-28T17:37:36;9.10;71.10
7046;DHT22;3564;53.326;10.356;2023-02-28T17:40:03;9.00;72.00
7046;DHT22;3564;53.326;10.356;2023-02-28T17:42:29;8.90;72.50
7046;DHT22;3564;53.326;10.356;2023-02-28T17:44:54;8.80;72.80
7046;DHT22;3564;53.326;10.356;2023-02-28T17:47:20;8.70;72.70
7046;DHT22;3564;53.326;10.356;2023-02-28T17:49:45;8.70;73.00
7046;DHT22;3564;53.326;10.356;2023-02-28T17:52:12;8.60;73.20
7046;DHT22;3564;53.326;10.356;2023-02-28T17:54:37;8.50;73.40
7046;DHT22;3564;53.326;10.356;2023-02-28T17:57:03;8.40;73.90
7046;DHT22;3564;53.326;10.356;2023-02-28T17:59:28;8.30;74.40
7046;DHT22;3564;53.326;10.356;2023-02-28T18:02:01;8.30;74.60
7046;DHT22;3564;53.326;10.356;2023-02-28T18:04:27;8.20;75.10
7046;DHT22;3564;53.326;10.356;2023-02-28T18:06:53;8.10;75.00
7046;DHT22;3564;53.326;10.356;2023-02-28T18:09:22;8.00;75.40
7046;DHT22;3564;53.326;10.356;2023-02-28T18:11:49;7.90;75.60
7046;DHT22;3564;53.326;10.356;2023-02-28T18:14:16;7.80;76.00
7046;DHT22;3564;53.326;10.356;2023-02-28T18:16:43;7.80;76.40
7046;DHT22;3564;53.326;10.356;2023-02-28T18:19:09;7.70;76.10
7046;DHT22;3564;53.326;10.356;2023-02-28T18:21:43;7.60;75.80
7046;DHT22;3564;53.326;10.356;2023-02-28T18:24:25;7.60;76.30
7046;DHT22;3564;53.326;10.356;2023-02-28T18:26:51;7.50;76.90
7046;DHT22;3564;53.326;10.356;2023-02-28T18:29:20;7.40;77.10